createdAt,value
2022-12-17T00:00:10.402Z,8.05
2022-12-17T00:02:31.828Z,8.50
2022-12-17T00:04:53.306Z,7.57
2022-12-17T00:07:14.995Z,7.75
2022-12-17T00:09:36.201Z,7.90
2022-12-17T00:11:57.293Z,7.53
2022-12-17T00:14:18.520Z,8.10
2022-12-17T00:16:39.898Z,7.80
2022-12-17T00:19:01.169Z,7.57
2022-12-17T00:21:25.392Z,6.80
2022-12-17T00:23:46.644Z,7.03
2022-12-17T00:26:12.123Z,8.40
2022-12-17T00:28:33.804Z,6.70
2022-12-17T00:30:54.992Z,6.38
2022-12-17T00:33:16.222Z,7.72
2022-12-17T00:35:37.472Z,7.43
2022-12-17T00:37:58.794Z,6.05
2022-12-17T00:40:19.995Z,8.57
2022-12-17T00:42:41.316Z,7.38
2022-12-17T00:45:02.296Z,7.87
2022-12-17T00:47:24.957Z,7.43
2022-12-17T00:49:45.988Z,8.27
2022-12-17T00:52:06.972Z,8.00
2022-12-17T00:54:28.208Z,6.57
2022-12-17T00:56:49.352Z,8.60
2022-12-17T00:59:13.395Z,8.35
2022-12-17T01:01:34.835Z,9.00
2022-12-17T01:03:56.096Z,7.78
2022-12-17T01:06:22.209Z,7.65
2022-12-17T01:08:43.126Z,7.72
2022-12-17T01:11:04.185Z,9.15
2022-12-17T01:13:25.121Z,8.40
2022-12-17T01:15:46.186Z,8.73
2022-12-17T01:18:07.235Z,7.78
2022-12-17T01:20:28.812Z,7.25
2022-12-17T01:22:49.876Z,8.43
2022-12-17T01:25:11.188Z,8.15
2022-12-17T01:27:32.390Z,8.60
2022-12-17T01:29:53.350Z,9.27
2022-12-17T01:32:14.585Z,8.43
2022-12-17T01:34:35.834Z,8.23
2022-12-17T01:36:56.777Z,8.07
2022-12-17T01:39:17.677Z,10.05
2022-12-17T01:41:38.572Z,7.95
2022-12-17T01:43:59.938Z,7.78
2022-12-17T01:46:21.167Z,6.88
2022-12-17T01:48:57.125Z,7.45
2022-12-17T01:51:32.158Z,8.85
2022-12-17T01:54:00.561Z,8.05
2022-12-17T01:56:23.227Z,8.18
2022-12-17T01:58:44.132Z,8.07
2022-12-17T02:01:05.585Z,7.78
2022-12-17T02:03:38.127Z,6.93
2022-12-17T02:06:20.138Z,8.32
2022-12-17T02:08:41.095Z,7.55
2022-12-17T02:11:30.826Z,7.30
2022-12-17T02:14:00.586Z,6.95
2022-12-17T02:16:49.459Z,7.13
2022-12-17T02:19:18.494Z,7.72
2022-12-17T02:21:41.830Z,8.27
2022-12-17T02:24:15.103Z,7.47
2022-12-17T02:27:02.912Z,7.05
2022-12-17T02:29:26.629Z,7.68
2022-12-17T02:31:48.582Z,8.00
2022-12-17T02:34:10.151Z,7.43
2022-12-17T02:36:31.388Z,7.32
2022-12-17T02:39:00.548Z,5.85
2022-12-17T02:41:25.111Z,8.18
2022-12-17T02:43:47.774Z,6.63
2022-12-17T02:46:09.257Z,7.88
2022-12-17T02:48:31.345Z,5.82
2022-12-17T02:50:52.772Z,7.57
2022-12-17T02:53:17.559Z,8.10
2022-12-17T02:55:38.490Z,7.28
2022-12-17T02:57:59.585Z,8.13
2022-12-17T03:00:20.528Z,8.15
2022-12-17T03:02:41.648Z,8.30
2022-12-17T03:05:15.212Z,7.83
2022-12-17T03:07:44.289Z,8.23
2022-12-17T03:10:05.288Z,6.87
2022-12-17T03:12:26.370Z,6.25
2022-12-17T03:14:47.505Z,6.13
2022-12-17T03:17:08.374Z,6.80
2022-12-17T03:19:29.703Z,6.45
2022-12-17T03:21:50.724Z,6.03
2022-12-17T03:24:12.108Z,6.43
2022-12-17T03:26:32.942Z,6.80
2022-12-17T03:28:53.735Z,7.28
2022-12-17T03:31:18.363Z,7.80
2022-12-17T03:33:39.488Z,7.80
2022-12-17T03:36:00.410Z,6.63
2022-12-17T03:38:26.948Z,7.10
2022-12-17T03:40:48.033Z,6.75
2022-12-17T03:43:09.434Z,6.55
2022-12-17T03:45:31.284Z,7.22
2022-12-17T03:47:52.180Z,6.15
2022-12-17T03:50:13.423Z,6.07
2022-12-17T03:52:36.001Z,6.22
2022-12-17T03:54:57.125Z,6.88
2022-12-17T03:57:18.089Z,6.90
2022-12-17T03:59:39.346Z,6.88
2022-12-17T04:02:00.355Z,6.43
2022-12-17T04:04:21.545Z,6.10
2022-12-17T04:06:42.779Z,7.35
2022-12-17T04:09:03.583Z,6.90
2022-12-17T04:11:25.019Z,6.95
2022-12-17T04:13:46.201Z,7.03
2022-12-17T04:16:07.672Z,5.22
2022-12-17T04:18:28.785Z,7.25
2022-12-17T04:20:49.944Z,6.88
2022-12-17T04:23:11.029Z,7.20
2022-12-17T04:25:32.295Z,7.28
2022-12-17T04:27:53.171Z,7.13
2022-12-17T04:30:14.628Z,7.85
2022-12-17T04:32:35.796Z,7.57
2022-12-17T04:34:57.216Z,7.97
2022-12-17T04:37:18.292Z,8.45
2022-12-17T04:39:39.612Z,8.38
2022-12-17T04:42:00.776Z,8.03
2022-12-17T04:44:22.276Z,8.35
2022-12-17T04:46:43.360Z,11.02
2022-12-17T04:49:04.747Z,9.13
2022-12-17T04:51:25.979Z,8.25
2022-12-17T04:54:07.073Z,8.40
2022-12-17T04:56:28.012Z,7.45
2022-12-17T04:58:49.140Z,8.48
2022-12-17T05:01:11.190Z,7.60
2022-12-17T05:03:35.064Z,8.68
2022-12-17T05:05:56.774Z,8.90
2022-12-17T05:08:18.092Z,8.63
2022-12-17T05:10:39.452Z,7.03
2022-12-17T05:13:00.501Z,9.00
2022-12-17T05:15:21.855Z,8.52
2022-12-17T05:17:42.854Z,8.40
2022-12-17T05:20:04.435Z,8.57
2022-12-17T05:22:25.788Z,8.95
2022-12-17T05:24:46.920Z,7.93
2022-12-17T05:27:07.823Z,7.30
2022-12-17T05:29:29.130Z,7.68
2022-12-17T05:31:50.422Z,7.55
2022-12-17T05:34:11.208Z,7.57
2022-12-17T05:36:32.357Z,7.45
2022-12-17T05:38:53.271Z,7.53
2022-12-17T05:41:16.657Z,7.63
2022-12-17T05:43:38.077Z,8.18
2022-12-17T05:46:00.668Z,5.78
2022-12-17T05:50:42.502Z,8.65
2022-12-17T05:53:03.842Z,8.98
2022-12-17T05:55:25.380Z,8.70
2022-12-17T05:57:50.486Z,8.48
2022-12-17T06:00:14.089Z,7.65
2022-12-17T06:02:35.143Z,8.13
2022-12-17T06:05:01.969Z,8.20
2022-12-17T06:07:25.006Z,8.20
2022-12-17T06:09:46.103Z,7.80
2022-12-17T06:12:07.125Z,8.40
2022-12-17T06:14:28.392Z,7.97
2022-12-17T06:16:49.362Z,5.70
2022-12-17T06:19:10.645Z,8.23
2022-12-17T06:21:31.571Z,6.90
2022-12-17T06:23:52.588Z,6.72
2022-12-17T06:26:15.088Z,8.23
2022-12-17T06:28:36.266Z,7.75
2022-12-17T06:30:57.478Z,5.80
2022-12-17T06:33:24.120Z,6.93
2022-12-17T06:35:46.351Z,6.95
2022-12-17T06:40:29.123Z,7.53
2022-12-17T06:42:50.039Z,7.25
2022-12-17T06:45:11.062Z,6.90
2022-12-17T06:47:32.068Z,7.47
2022-12-17T06:49:57.966Z,6.22
2022-12-17T06:52:22.206Z,8.13
2022-12-17T06:54:43.498Z,7.07
2022-12-17T06:57:04.433Z,7.83
2022-12-17T06:59:25.827Z,7.63
2022-12-17T07:01:48.050Z,5.10
2022-12-17T07:04:09.399Z,7.22
2022-12-17T07:09:45.014Z,7.78
2022-12-17T07:12:06.077Z,7.47
2022-12-17T07:14:26.997Z,7.15
2022-12-17T07:16:48.044Z,8.07
2022-12-17T07:19:09.296Z,8.93
2022-12-17T07:21:30.201Z,8.48
2022-12-17T07:23:51.535Z,8.57
2022-12-17T07:26:12.812Z,10.02
2022-12-17T07:28:34.119Z,8.47
2022-12-17T07:30:55.931Z,8.57
2022-12-17T07:33:21.113Z,8.35
2022-12-17T07:35:42.454Z,9.52
2022-12-17T07:38:03.393Z,8.85
2022-12-17T07:40:25.200Z,7.93
2022-12-17T07:42:46.201Z,7.18
2022-12-17T07:45:07.204Z,8.68
2022-12-17T07:47:28.125Z,7.80
2022-12-17T07:49:49.065Z,7.75
2022-12-17T07:52:10.352Z,8.85
2022-12-17T07:54:31.475Z,7.73
2022-12-17T07:56:52.603Z,7.22
2022-12-17T07:59:13.906Z,7.80
2022-12-17T08:01:35.548Z,8.57
2022-12-17T08:03:56.982Z,7.75
2022-12-17T08:06:18.535Z,7.70
2022-12-17T08:08:39.424Z,8.23
2022-12-17T08:11:07.544Z,7.63
2022-12-17T08:13:28.440Z,7.60
2022-12-17T08:15:50.980Z,6.88
2022-12-17T08:18:22.925Z,7.65
2022-12-17T08:20:47.493Z,7.45
2022-12-17T08:23:08.565Z,7.55
2022-12-17T08:25:30.135Z,7.03
2022-12-17T08:27:51.057Z,7.40
2022-12-17T08:30:12.104Z,7.55
2022-12-17T08:32:33.569Z,7.63
2022-12-17T08:34:54.834Z,6.80
2022-12-17T08:37:15.924Z,6.57
2022-12-17T08:39:36.828Z,7.55
2022-12-17T08:42:03.934Z,7.55
2022-12-17T08:44:25.735Z,7.45
2022-12-17T08:47:00.614Z,7.10
2022-12-17T08:49:22.142Z,8.32
2022-12-17T08:51:44.333Z,7.38
2022-12-17T08:54:05.603Z,7.75
2022-12-17T08:56:26.617Z,6.50
2022-12-17T08:58:47.859Z,6.65
2022-12-17T09:01:10.798Z,7.73
2022-12-17T09:03:31.903Z,8.35
2022-12-17T09:05:53.314Z,7.28
2022-12-17T09:08:22.538Z,6.25
2022-12-17T09:10:43.541Z,7.35
2022-12-17T09:13:05.296Z,7.95
2022-12-17T09:15:26.908Z,8.25
2022-12-17T09:17:48.073Z,8.30
2022-12-17T09:20:09.253Z,7.18
2022-12-17T09:22:30.366Z,7.40
2022-12-17T09:24:51.598Z,7.38
2022-12-17T09:27:12.720Z,6.57
2022-12-17T09:29:33.737Z,7.78
2022-12-17T09:31:54.931Z,8.88
2022-12-17T09:34:16.077Z,8.45
2022-12-17T09:36:37.282Z,7.60
2022-12-17T09:38:58.465Z,7.45
2022-12-17T09:41:46.412Z,9.13
2022-12-17T09:44:21.765Z,6.88
2022-12-17T09:46:45.831Z,6.13
2022-12-17T09:49:12.850Z,6.10
2022-12-17T09:51:45.976Z,6.75
2022-12-17T09:54:12.134Z,7.45
2022-12-17T09:56:34.438Z,6.53
2022-12-17T10:01:23.634Z,8.82
2022-12-17T10:03:45.871Z,6.53
2022-12-17T10:06:08.475Z,6.80
2022-12-17T10:08:37.084Z,7.22
2022-12-17T10:11:03.657Z,8.65
2022-12-17T10:13:36.170Z,8.32
2022-12-17T10:16:00.447Z,9.30
2022-12-17T10:18:45.985Z,7.38
2022-12-17T10:21:15.541Z,7.95
2022-12-17T10:23:50.620Z,7.70
2022-12-17T10:26:14.131Z,10.45
2022-12-17T10:28:41.321Z,9.48
2022-12-17T10:31:02.414Z,7.93
2022-12-17T10:33:40.039Z,8.70
2022-12-17T10:36:01.354Z,9.20
2022-12-17T10:38:46.637Z,7.57
2022-12-17T10:41:07.613Z,9.20
2022-12-17T10:43:53.850Z,9.65
2022-12-17T10:46:16.368Z,8.30
2022-12-17T10:48:50.345Z,8.73
2022-12-17T10:51:12.524Z,7.10
2022-12-17T10:53:52.262Z,8.10
2022-12-17T10:56:16.368Z,8.98
2022-12-17T10:58:48.055Z,9.45
2022-12-17T11:01:17.877Z,9.38
2022-12-17T11:03:44.795Z,10.68
2022-12-17T11:06:10.501Z,9.45
2022-12-17T11:08:34.898Z,10.43
2022-12-17T11:11:02.007Z,9.23
2022-12-17T11:13:29.458Z,8.32
2022-12-17T11:16:06.088Z,7.82
2022-12-17T11:18:36.434Z,8.50
2022-12-17T11:21:14.271Z,9.52
2022-12-17T11:23:38.406Z,10.15
2022-12-17T11:26:24.003Z,9.88
2022-12-17T11:28:51.015Z,8.98
2022-12-17T11:31:21.781Z,12.13
2022-12-17T11:33:56.267Z,10.45
2022-12-17T11:36:51.496Z,9.02
2022-12-17T11:39:24.604Z,10.00
2022-12-17T11:41:57.809Z,9.75
2022-12-17T11:44:49.599Z,9.95
2022-12-17T11:47:13.586Z,9.73
2022-12-17T11:49:56.429Z,10.63
2022-12-17T11:52:29.329Z,9.45
2022-12-17T11:55:02.403Z,9.27
2022-12-17T11:57:42.905Z,9.93
2022-12-17T12:00:04.500Z,10.15
2022-12-17T12:03:07.788Z,11.07
2022-12-17T12:05:34.845Z,14.45
2022-12-17T12:08:21.233Z,9.85
2022-12-17T12:11:10.349Z,9.43
2022-12-17T12:13:58.572Z,9.93
2022-12-17T12:16:42.066Z,8.93
2022-12-17T12:19:13.545Z,8.45
2022-12-17T12:21:57.993Z,7.90
2022-12-17T12:24:40.877Z,8.45
2022-12-17T12:27:39.140Z,8.15
2022-12-17T12:30:08.989Z,8.05
2022-12-17T12:32:47.192Z,7.25
2022-12-17T12:35:11.253Z,8.93
2022-12-17T12:37:35.908Z,7.93
2022-12-17T12:40:02.610Z,7.95
2022-12-17T12:42:50.433Z,6.90
2022-12-17T12:45:46.683Z,7.43
2022-12-17T12:48:43.307Z,7.63
2022-12-17T12:51:11.831Z,7.60
2022-12-17T12:53:33.938Z,7.13
2022-12-17T12:56:01.724Z,8.38
2022-12-17T12:58:50.807Z,7.63
2022-12-17T13:01:15.988Z,7.95
2022-12-17T13:03:55.491Z,7.70
2022-12-17T13:05:58.340Z,7.70
2022-12-17T13:08:25.365Z,7.78
2022-12-17T13:10:30.706Z,7.80
2022-12-17T13:12:49.557Z,8.75
2022-12-17T13:15:07.280Z,8.88
2022-12-17T13:17:18.803Z,7.97
2022-12-17T13:19:36.706Z,8.75
2022-12-17T13:21:39.291Z,9.52
2022-12-17T13:23:42.236Z,8.95
2022-12-17T13:25:44.964Z,10.00
2022-12-17T13:27:48.676Z,8.98
2022-12-17T13:29:51.291Z,8.27
2022-12-17T13:32:17.258Z,8.95
2022-12-17T13:34:37.811Z,9.48
2022-12-17T13:36:57.942Z,9.25
2022-12-17T13:39:06.273Z,10.15
2022-12-17T13:41:14.626Z,7.15
2022-12-17T13:43:20.153Z,10.05
2022-12-17T13:45:26.077Z,9.40
2022-12-17T13:47:31.891Z,7.93
2022-12-17T13:49:34.494Z,9.65
2022-12-17T13:51:37.301Z,8.00
2022-12-17T13:53:39.836Z,8.40
2022-12-17T13:55:51.316Z,9.38
2022-12-17T13:57:54.408Z,8.90
2022-12-17T14:00:02.660Z,8.32
2022-12-17T14:02:22.933Z,8.32
2022-12-17T14:04:28.035Z,7.65
2022-12-17T14:06:36.922Z,9.00
2022-12-17T14:08:40.782Z,7.25
2022-12-17T14:11:15.167Z,8.27
2022-12-17T14:13:18.396Z,8.50
2022-12-17T14:15:32.285Z,9.20
2022-12-17T14:17:41.672Z,8.32
2022-12-17T14:19:44.497Z,8.35
2022-12-17T14:21:47.671Z,8.77
2022-12-17T14:23:52.196Z,8.88
2022-12-17T14:25:55.049Z,8.77
2022-12-17T14:28:03.792Z,11.25
2022-12-17T14:30:22.539Z,9.35
2022-12-17T14:32:37.596Z,8.60
2022-12-17T14:34:43.311Z,8.48
2022-12-17T14:36:47.035Z,9.23
2022-12-17T14:38:57.042Z,8.95
2022-12-17T14:41:32.805Z,7.88
2022-12-17T14:43:35.449Z,9.98
2022-12-17T14:45:58.085Z,9.50
2022-12-17T14:48:04.460Z,9.70
2022-12-17T14:50:23.947Z,9.45
2022-12-17T14:52:57.519Z,9.02
2022-12-17T14:55:00.561Z,7.63
2022-12-17T14:57:06.209Z,8.65
2022-12-17T14:59:38.205Z,8.95
2022-12-17T15:01:40.898Z,10.70
2022-12-17T15:03:48.766Z,9.63
2022-12-17T15:06:07.372Z,8.80
2022-12-17T15:08:11.731Z,9.23
2022-12-17T15:10:19.132Z,10.55
2022-12-17T15:12:23.586Z,8.98
2022-12-17T15:14:26.192Z,8.40
2022-12-17T15:16:29.283Z,8.60
2022-12-17T15:18:32.995Z,8.82
2022-12-17T15:20:36.347Z,8.75
2022-12-17T15:22:39.281Z,9.05
2022-12-17T15:24:42.237Z,9.07
2022-12-17T15:26:45.096Z,9.65
2022-12-17T15:28:47.856Z,8.43
2022-12-17T15:30:50.688Z,9.07
2022-12-17T15:32:53.370Z,8.80
2022-12-17T15:34:57.093Z,8.57
2022-12-17T15:36:59.764Z,9.63
2022-12-17T15:39:02.452Z,9.55
2022-12-17T15:41:26.510Z,9.57
2022-12-17T15:43:30.414Z,12.90
2022-12-17T15:45:33.410Z,8.73
2022-12-17T15:47:36.449Z,8.57
2022-12-17T15:49:39.150Z,13.23
2022-12-17T15:51:41.715Z,9.52
2022-12-17T15:53:44.289Z,11.10
2022-12-17T15:55:46.891Z,9.75
2022-12-17T15:57:49.430Z,9.20
2022-12-17T15:59:52.211Z,9.40
2022-12-17T16:01:54.839Z,9.68
2022-12-17T16:03:58.044Z,8.57
2022-12-17T16:06:01.895Z,11.23
2022-12-17T16:08:04.695Z,11.85
2022-12-17T16:10:07.537Z,9.13
2022-12-17T16:12:10.402Z,11.57
2022-12-17T16:14:13.070Z,8.90
2022-12-17T16:16:15.876Z,10.85
2022-12-17T16:18:18.512Z,11.10
2022-12-17T16:20:21.093Z,9.48
2022-12-17T16:22:23.890Z,10.43
2022-12-17T16:24:26.945Z,33.47
2022-12-17T16:26:29.527Z,10.52
2022-12-17T16:28:32.962Z,10.82
2022-12-17T16:30:35.576Z,11.38
2022-12-17T16:32:38.744Z,9.07
2022-12-17T16:34:44.134Z,10.27
2022-12-17T16:36:46.757Z,9.68
2022-12-17T16:38:52.900Z,12.70
2022-12-17T16:41:00.092Z,9.57
2022-12-17T16:43:02.723Z,10.13
2022-12-17T16:45:06.160Z,11.52
2022-12-17T16:47:10.462Z,11.05
2022-12-17T16:49:18.556Z,10.55
2022-12-17T16:51:28.547Z,10.30
2022-12-17T16:53:32.034Z,12.40
2022-12-17T16:55:41.001Z,10.88
2022-12-17T16:57:43.538Z,9.48
2022-12-17T16:59:46.168Z,10.52
2022-12-17T17:01:50.689Z,11.63
2022-12-17T17:03:53.713Z,16.00
2022-12-17T17:06:01.118Z,10.27
2022-12-17T17:08:04.713Z,10.90
2022-12-17T17:10:07.512Z,12.05
2022-12-17T17:12:12.043Z,11.27
2022-12-17T17:14:14.757Z,10.90
2022-12-17T17:16:19.446Z,10.50
2022-12-17T17:18:24.749Z,10.63
2022-12-17T17:20:27.724Z,11.85
2022-12-17T17:22:30.250Z,10.68
2022-12-17T17:24:32.812Z,11.32
2022-12-17T17:26:35.973Z,10.45
2022-12-17T17:28:39.116Z,13.25
2022-12-17T17:30:42.264Z,11.95
2022-12-17T17:32:44.970Z,10.30
2022-12-17T17:34:47.622Z,10.50
2022-12-17T17:36:50.173Z,10.13
2022-12-17T17:38:57.182Z,9.43
2022-12-17T17:40:59.762Z,10.45
2022-12-17T17:43:02.339Z,10.15
2022-12-17T17:45:05.167Z,10.88
2022-12-17T17:47:08.026Z,11.77
2022-12-17T17:49:12.000Z,10.95
2022-12-17T17:51:39.032Z,10.30
2022-12-17T17:53:48.055Z,10.52
2022-12-17T17:55:50.532Z,10.48
2022-12-17T17:57:53.228Z,10.88
2022-12-17T17:59:55.864Z,11.23
2022-12-17T18:01:58.513Z,9.82
2022-12-17T18:04:06.010Z,9.73
2022-12-17T18:06:11.625Z,10.45
2022-12-17T18:08:15.405Z,10.50
2022-12-17T18:10:18.065Z,10.18
2022-12-17T18:12:39.351Z,12.50
2022-12-17T18:14:46.670Z,7.93
2022-12-17T18:17:00.558Z,10.40
2022-12-17T18:19:20.501Z,10.50
2022-12-17T18:21:24.191Z,9.63
2022-12-17T18:23:26.867Z,10.55
2022-12-17T18:25:32.886Z,10.02
2022-12-17T18:27:40.303Z,10.00
2022-12-17T18:29:42.940Z,9.73
2022-12-17T18:31:51.536Z,11.90
2022-12-17T18:33:58.903Z,10.50
2022-12-17T18:36:01.461Z,10.05
2022-12-17T18:38:04.146Z,9.07
2022-12-17T18:40:07.829Z,12.65
2022-12-17T18:42:28.789Z,10.20
2022-12-17T18:44:32.455Z,11.05
2022-12-17T18:46:35.822Z,11.45
2022-12-17T18:48:38.863Z,9.95
2022-12-17T18:50:41.787Z,10.52
2022-12-17T18:52:44.350Z,11.02
2022-12-17T18:54:46.871Z,10.93
2022-12-17T18:57:01.018Z,11.07
2022-12-17T18:59:04.983Z,11.80
2022-12-17T19:01:08.274Z,11.52
2022-12-17T19:03:11.241Z,10.95
2022-12-17T19:05:14.000Z,11.20
2022-12-17T19:07:16.552Z,10.70
2022-12-17T19:09:25.188Z,10.07
2022-12-17T19:11:28.397Z,8.65
2022-12-17T19:13:31.389Z,11.30
2022-12-17T19:15:36.069Z,10.23
2022-12-17T19:17:38.890Z,12.43
2022-12-17T19:19:41.422Z,10.88
2022-12-17T19:21:44.817Z,12.13
2022-12-17T19:23:48.587Z,9.93
2022-12-17T19:25:51.167Z,10.85
2022-12-17T19:27:53.913Z,10.80
2022-12-17T19:29:57.288Z,10.98
2022-12-17T19:32:00.610Z,9.68
2022-12-17T19:34:05.728Z,10.38
2022-12-17T19:36:14.181Z,11.13
2022-12-17T19:38:16.784Z,16.75
2022-12-17T19:40:19.420Z,11.32
2022-12-17T19:42:25.161Z,11.32
2022-12-17T19:44:27.934Z,9.95
2022-12-17T19:46:32.209Z,13.32
2022-12-17T19:48:37.215Z,11.68
2022-12-17T19:50:40.204Z,10.15
2022-12-17T19:52:42.764Z,11.80
2022-12-17T19:54:45.317Z,11.07
2022-12-17T19:56:47.924Z,10.85
2022-12-17T19:58:53.224Z,9.50
2022-12-17T20:00:55.841Z,9.77
2022-12-17T20:02:58.706Z,9.05
2022-12-17T20:05:01.337Z,9.52
2022-12-17T20:07:04.097Z,10.13
2022-12-17T20:09:07.451Z,11.23
2022-12-17T20:11:30.689Z,14.55
2022-12-17T20:13:33.217Z,10.65
2022-12-17T20:15:35.888Z,10.55
2022-12-17T20:17:38.487Z,10.60
2022-12-17T20:19:42.280Z,9.07
2022-12-17T20:21:44.869Z,8.85
2022-12-17T20:23:48.722Z,8.65
2022-12-17T20:26:01.934Z,10.70
2022-12-17T20:28:04.917Z,12.32
2022-12-17T20:30:08.092Z,8.73
2022-12-17T20:32:10.778Z,9.15
2022-12-17T20:34:15.982Z,9.05
2022-12-17T20:36:20.037Z,10.52
2022-12-17T20:38:23.024Z,9.63
2022-12-17T20:40:25.649Z,9.93
2022-12-17T20:42:28.197Z,17.58
2022-12-17T20:44:30.847Z,9.88
2022-12-17T20:46:34.224Z,18.25
2022-12-17T20:48:39.157Z,9.45
2022-12-17T20:50:42.007Z,12.10
2022-12-17T20:52:44.588Z,9.02
2022-12-17T20:54:47.169Z,10.35
2022-12-17T20:56:50.115Z,8.68
2022-12-17T20:58:54.979Z,12.75
2022-12-17T21:01:07.690Z,9.90
2022-12-17T21:03:10.742Z,47.85
2022-12-17T21:05:13.579Z,10.95
2022-12-17T21:07:16.170Z,11.43
2022-12-17T21:09:20.501Z,9.38
2022-12-17T21:11:26.076Z,19.83
2022-12-17T21:13:31.755Z,10.32
2022-12-17T21:15:34.346Z,10.85
2022-12-17T21:17:36.867Z,11.57
2022-12-17T21:19:39.382Z,10.00
2022-12-17T21:21:42.248Z,11.02
2022-12-17T21:23:45.588Z,14.95
2022-12-17T21:25:48.361Z,11.32
2022-12-17T21:27:51.074Z,10.50
2022-12-17T21:29:53.993Z,10.27
2022-12-17T21:31:56.652Z,10.77
2022-12-17T21:34:03.160Z,11.02
2022-12-17T21:36:07.899Z,9.95
2022-12-17T21:38:10.943Z,10.75
2022-12-17T21:40:13.737Z,11.35
2022-12-17T21:42:35.002Z,10.32
2022-12-17T21:44:37.718Z,11.30
2022-12-17T21:46:40.892Z,12.10
2022-12-17T21:48:44.077Z,13.18
2022-12-17T21:50:47.087Z,11.13
2022-12-17T21:52:50.211Z,11.98
2022-12-17T21:54:52.864Z,10.82
2022-12-17T21:56:55.445Z,9.38
2022-12-17T21:59:00.356Z,11.90
2022-12-17T22:01:19.109Z,12.40
2022-12-17T22:03:22.265Z,13.63
2022-12-17T22:05:24.886Z,12.15
2022-12-17T22:07:32.028Z,11.85
2022-12-17T22:09:42.502Z,11.32
2022-12-17T22:12:20.205Z,22.33
2022-12-17T22:14:22.858Z,14.55
2022-12-17T22:16:27.354Z,14.95
2022-12-17T22:18:29.931Z,13.15
2022-12-17T22:20:32.525Z,13.07
2022-12-17T22:22:35.215Z,13.80
2022-12-17T22:24:38.047Z,12.88
2022-12-17T22:26:40.795Z,12.88
2022-12-17T22:28:48.580Z,14.45
2022-12-17T22:31:09.897Z,14.73
2022-12-17T22:37:34.843Z,15.00
2022-12-17T22:40:50.083Z,13.35
2022-12-17T22:44:35.586Z,14.70
2022-12-17T22:44:37.804Z,14.38
2022-12-17T22:45:27.605Z,16.73
2022-12-17T22:47:30.228Z,17.45
2022-12-17T22:49:32.854Z,18.85
2022-12-17T22:51:39.032Z,16.48
2022-12-17T22:53:43.403Z,20.10
2022-12-17T22:55:46.221Z,16.67
2022-12-17T22:57:48.880Z,16.15
2022-12-17T22:59:51.513Z,18.27
2022-12-17T23:01:54.321Z,17.55
2022-12-17T23:03:58.829Z,18.42
2022-12-17T23:06:13.629Z,18.08
2022-12-17T23:08:16.254Z,17.48
2022-12-17T23:10:20.091Z,16.70
2022-12-17T23:12:41.240Z,18.88
2022-12-17T23:14:43.925Z,15.32
2022-12-17T23:16:46.580Z,19.13
2022-12-17T23:18:50.897Z,18.13
2022-12-17T23:20:53.587Z,19.83
2022-12-17T23:22:57.011Z,19.58
2022-12-17T23:24:59.626Z,20.40
2022-12-17T23:27:02.195Z,20.25
2022-12-17T23:29:08.061Z,19.00
2022-12-17T23:31:13.213Z,17.05
2022-12-17T23:33:15.914Z,22.30
2022-12-17T23:35:18.755Z,18.13
2022-12-17T23:37:21.281Z,15.55
2022-12-17T23:39:24.021Z,18.15
2022-12-17T23:41:29.304Z,20.23
2022-12-17T23:43:33.072Z,17.80
2022-12-17T23:45:35.594Z,19.48
2022-12-17T23:47:39.095Z,16.95
2022-12-17T23:49:41.651Z,23.05
2022-12-17T23:51:44.233Z,23.52
2022-12-17T23:53:47.625Z,26.15
2022-12-17T23:55:51.143Z,18.77
2022-12-17T23:57:56.766Z,19.23
2022-12-17T23:59:59.385Z,18.08
